Aviation Digital Data Service (ADDS)

Output produced by METARs form (2314 UTC 20 January 2019)
found at http://www.aviationweather.gov/metar/data/
 
Forecast for: AGGR (RENNELL TINGOA , SB)
Text: TAF AGGR 201715Z 2018/2118 02012KT 9999 FEW014 SCT028
Forecast period: 1800 UTC 20 January 2019 to 1800 UTC 21 January 2019
Forecast type: FROM: standard forecast or significant change
Winds: from the NNE (20 degrees) at 14 MPH (12 knots; 6.2 m/s)
Visibility: 6 or more miles 10+ km)
Ceiling: at least 12,000 feet AGL
Clouds: few clouds at 1400 feet AGL
scattered clouds at 2800 feet AGL
Weather: no significant weather forecast for this period
Text: PROB30 INTER 2100/2108 5000 TSSH SCT013 FEW014CB BKN027 Q 1005 1007 1007 1005
Forecast period: 0000 to 0800 UTC 21 January 2019
Forecast type: TEMPORARY: The following changes expected for less than half the time period
Visibility: 3 miles (5 km)
Ceiling: 2700 feet AGL
Clouds: scattered clouds at 1300 feet AGL
few clouds at 1400 feet AGL
broken clouds at 2700 feet AGL
Weather: SH TS  (showers, thunderstorm)